Time;durP1;ratioP1;P1;durP2;ratioP2;P2;SDS_P1;SDS_P2;PMS_P1;PMS_P2;Temp;Humidity;BMP_temperature;BMP_pressure;BME280_temperature;BME280_humidity;BME280_pressure;Samples;Min_cycle;Max_cycle;Signal;HPM_P1;HPM_P2
2023/01/19 11:28:48;;;;;;;3.78;1.92;;;;;;;;;;3846703;37;43170;-72
2023/01/19 11:31:35;;;;;;;4.35;1.77;;;;;;;;;;4407404;32;59947;-72
2023/01/19 11:34:33;;;;;;;4.53;1.67;;;;;;;;;;4408979;32;70793;-72
2023/01/19 11:37:19;;;;;;;3.58;1.65;;;;;;;;;;4385116;32;68235;-72
2023/01/19 11:40:08;;;;;;;3.78;1.50;;;;;;;;;;4380152;32;67301;-69
2023/01/19 11:42:55;;;;;;;2.15;1.52;;;;;;;;;;4376768;32;71677;-69
2023/01/19 11:45:43;;;;;;;3.37;1.60;;;;;;;;;;4376941;32;65814;-68
2023/01/19 11:48:36;;;;;;;3.70;1.58;;;;;;;;;;4360651;32;67714;-66
2023/01/19 11:51:24;;;;;;;2.20;1.23;;;;;;;;;;4377583;32;60197;-68
2023/01/19 11:54:23;;;;;;;3.05;1.42;;;;;;;;;;4374470;32;71661;-65
2023/01/19 11:57:12;;;;;;;3.95;1.37;;;;;;;;;;4374859;32;65936;-71
2023/01/19 12:00:04;;;;;;;6.25;1.52;;;;;;;;;;4377203;32;66695;-69
2023/01/19 12:03:07;;;;;;;2.60;1.25;;;;;;;;;;4388257;32;58434;-69
2023/01/19 12:06:03;;;;;;;2.33;1.23;;;;;;;;;;4358196;32;69247;-68
2023/01/19 12:08:52;;;;;;;2.08;1.30;;;;;;;;;;4354806;32;70156;-67
2023/01/19 12:11:48;;;;;;;4.47;1.60;;;;;;;;;;4375793;32;67882;-75
2023/01/19 12:14:56;;;;;;;3.08;1.75;;;;;;;;;;4354297;32;71680;-71
2023/01/19 12:17:49;;;;;;;2.15;1.55;;;;;;;;;;4364127;32;66218;-71
2023/01/19 12:21:02;;;;;;;2.30;1.33;;;;;;;;;;4369829;32;69606;-75
2023/01/19 12:24:04;;;;;;;3.28;1.95;;;;;;;;;;4365629;32;67754;-66
2023/01/19 12:26:56;;;;;;;5.18;1.70;;;;;;;;;;4366060;32;69497;-66
2023/01/19 12:29:44;;;;;;;2.28;1.20;;;;;;;;;;4369993;32;67165;-65
2023/01/19 12:32:38;;;;;;;3.30;1.67;;;;;;;;;;4366452;32;67666;-68
2023/01/19 12:35:54;;;;;;;3.17;1.60;;;;;;;;;;4369985;32;60378;-75
2023/01/19 12:38:48;;;;;;;3.83;1.60;;;;;;;;;;4359261;32;69469;-69
2023/01/19 12:41:37;;;;;;;4.25;2.30;;;;;;;;;;4361510;32;69387;-73
2023/01/19 12:44:26;;;;;;;2.28;1.52;;;;;;;;;;4367503;32;67717;-72
2023/01/19 12:47:13;;;;;;;2.47;1.52;;;;;;;;;;4348323;32;59255;-68
2023/01/19 12:50:07;;;;;;;2.87;1.47;;;;;;;;;;4353199;32;69392;-65
2023/01/19 12:52:57;;;;;;;3.70;1.50;;;;;;;;;;4358898;32;69342;-68
2023/01/19 12:55:46;;;;;;;3.40;1.55;;;;;;;;;;4370976;32;68070;-68
2023/01/19 12:58:33;;;;;;;2.50;1.60;;;;;;;;;;4362105;32;70589;-69
2023/01/19 13:01:20;;;;;;;1.62;1.40;;;;;;;;;;4377807;32;65966;-71
2023/01/19 13:04:31;;;;;;;3.25;1.17;;;;;;;;;;4374056;32;66620;-74
2023/01/19 13:07:20;;;;;;;2.17;1.45;;;;;;;;;;4347000;32;60076;-77
2023/01/19 13:10:46;;;;;;;3.80;1.75;;;;;;;;;;4362286;32;71680;-70
2023/01/19 13:13:36;;;;;;;1.90;1.35;;;;;;;;;;4351835;32;64319;-73
2023/01/19 13:16:43;;;;;;;2.90;1.45;;;;;;;;;;4361987;32;67534;-70
2023/01/19 13:19:36;;;;;;;4.85;2.20;;;;;;;;;;4356595;32;61035;-73
2023/01/19 13:22:51;;;;;;;5.22;3.35;;;;;;;;;;4354237;32;71621;-74
2023/01/19 13:25:37;;;;;;;5.30;3.47;;;;;;;;;;4353874;32;71804;-70
2023/01/19 13:28:43;;;;;;;6.65;4.55;;;;;;;;;;4344342;32;68034;-73
2023/01/19 13:31:34;;;;;;;3.28;1.83;;;;;;;;;;4355345;32;71785;-66
2023/01/19 13:34:26;;;;;;;3.50;1.80;;;;;;;;;;4360411;32;65472;-72
2023/01/19 13:37:19;;;;;;;3.10;1.62;;;;;;;;;;4365121;32;67539;-71
2023/01/19 13:40:13;;;;;;;3.37;1.90;;;;;;;;;;4342706;32;67706;-71
2023/01/19 13:43:00;;;;;;;2.65;1.35;;;;;;;;;;4359824;32;72563;-71
2023/01/19 13:45:49;;;;;;;3.47;1.87;;;;;;;;;;4350208;32;68131;-72
2023/01/19 13:48:36;;;;;;;2.37;1.52;;;;;;;;;;4367177;32;66960;-71
2023/01/19 13:51:23;;;;;;;2.28;1.50;;;;;;;;;;4360201;32;61615;-75
2023/01/19 13:54:16;;;;;;;5.07;1.30;;;;;;;;;;4360141;32;70542;-75
2023/01/19 13:57:04;;;;;;;2.72;1.45;;;;;;;;;;4367452;32;69555;-68
2023/01/19 14:00:13;;;;;;;1.48;1.10;;;;;;;;;;4342380;32;67641;-74
2023/01/19 14:03:20;;;;;;;1.80;1.50;;;;;;;;;;4335816;32;61169;-71
2023/01/19 14:06:19;;;;;;;2.15;1.42;;;;;;;;;;4371817;32;69826;-73
2023/01/19 14:09:08;;;;;;;1.83;1.25;;;;;;;;;;4365446;32;67785;-71
2023/01/19 14:14:26;;;;;;;2.58;1.15;;;;;;;;;;3864160;36;43417;-70
2023/01/19 14:17:28;;;;;;;2.33;1.50;;;;;;;;;;4398188;32;60046;-73
2023/01/19 14:20:28;;;;;;;3.37;1.62;;;;;;;;;;4388581;32;71495;-73
2023/01/19 14:23:37;;;;;;;2.33;1.50;;;;;;;;;;4400673;32;69608;-68
2023/01/19 14:26:50;;;;;;;2.78;1.40;;;;;;;;;;4386496;32;67905;-76
2023/01/19 14:29:37;;;;;;;1.80;1.27;;;;;;;;;;4393169;32;72001;-73
2023/01/19 14:32:26;;;;;;;3.08;1.42;;;;;;;;;;4391248;32;64930;-72
2023/01/19 14:35:24;;;;;;;2.65;1.67;;;;;;;;;;4411114;32;67161;-64
2023/01/19 14:38:14;;;;;;;4.43;1.35;;;;;;;;;;4406869;32;60414;-62
2023/01/19 14:41:01;;;;;;;2.22;1.20;;;;;;;;;;4414563;32;71146;-63
2023/01/19 14:43:48;;;;;;;2.62;1.23;;;;;;;;;;4427549;32;66034;-64
2023/01/19 14:46:35;;;;;;;2.92;1.42;;;;;;;;;;4404177;32;67265;-63
2023/01/19 14:49:45;;;;;;;2.22;1.60;;;;;;;;;;4389163;32;60153;-63
2023/01/19 14:52:36;;;;;;;2.25;1.58;;;;;;;;;;4397228;32;71195;-63
2023/01/19 14:55:44;;;;;;;1.83;1.05;;;;;;;;;;4373998;32;69821;-63
2023/01/19 14:58:33;;;;;;;2.92;1.50;;;;;;;;;;4387956;32;67134;-64
2023/01/19 15:01:20;;;;;;;2.75;1.50;;;;;;;;;;4387857;32;71667;-64
2023/01/19 15:04:06;;;;;;;1.73;1.30;;;;;;;;;;4397670;32;66212;-64
2023/01/19 15:06:54;;;;;;;3.03;1.48;;;;;;;;;;4374340;32;70094;-63
2023/01/19 15:09:41;;;;;;;1.87;1.08;;;;;;;;;;4398562;32;67570;-63
2023/01/19 15:12:28;;;;;;;2.00;1.73;;;;;;;;;;4384739;32;72088;-64
2023/01/19 15:15:25;;;;;;;4.37;2.12;;;;;;;;;;4386838;32;66473;-61
2023/01/19 15:18:18;;;;;;;3.33;2.33;;;;;;;;;;4398244;32;67768;-62
2023/01/19 15:21:08;;;;;;;3.40;1.87;;;;;;;;;;4398670;32;59585;-62
2023/01/19 15:23:54;;;;;;;3.12;1.60;;;;;;;;;;4394740;32;70392;-63
2023/01/19 15:26:42;;;;;;;2.12;1.52;;;;;;;;;;4377471;32;68367;-62
2023/01/19 15:29:28;;;;;;;3.80;1.75;;;;;;;;;;4377355;32;67868;-63
2023/01/19 15:32:15;;;;;;;3.83;1.95;;;;;;;;;;4400312;32;59414;-62
2023/01/19 15:35:02;;;;;;;2.42;1.60;;;;;;;;;;4377155;32;69619;-62
2023/01/19 15:37:49;;;;;;;1.92;1.58;;;;;;;;;;4387985;32;69434;-64
2023/01/19 15:40:36;;;;;;;4.30;1.62;;;;;;;;;;4377927;32;67499;-64
2023/01/19 15:43:22;;;;;;;2.67;1.73;;;;;;;;;;4388096;32;70806;-63
2023/01/19 15:46:12;;;;;;;2.03;1.48;;;;;;;;;;4377332;32;64691;-63
2023/01/19 15:48:59;;;;;;;2.42;1.70;;;;;;;;;;4363818;32;68617;-62
2023/01/19 15:51:46;;;;;;;3.78;1.90;;;;;;;;;;4374317;32;59947;-63
2023/01/19 15:54:32;;;;;;;2.83;1.58;;;;;;;;;;4399726;32;70466;-62
2023/01/19 15:57:19;;;;;;;3.22;1.60;;;;;;;;;;4377201;32;65928;-62
2023/01/19 16:00:06;;;;;;;2.67;1.52;;;;;;;;;;4374722;32;68632;-63
2023/01/19 16:02:56;;;;;;;2.92;1.77;;;;;;;;;;4375121;32;59781;-63
2023/01/19 16:05:43;;;;;;;2.50;1.30;;;;;;;;;;4387623;32;70479;-62
2023/01/19 16:08:29;;;;;;;2.05;1.40;;;;;;;;;;4399598;32;69501;-63
2023/01/19 16:11:17;;;;;;;3.37;1.60;;;;;;;;;;4387496;32;67790;-63
2023/01/19 16:14:04;;;;;;;3.03;1.52;;;;;;;;;;4387275;32;71679;-62
2023/01/19 16:16:51;;;;;;;3.50;1.52;;;;;;;;;;4387795;32;64794;-62
2023/01/19 16:19:37;;;;;;;1.85;1.27;;;;;;;;;;4387794;32;67445;-62
2023/01/19 16:22:24;;;;;;;2.97;1.70;;;;;;;;;;4384705;32;68723;-62
2023/01/19 16:25:11;;;;;;;1.50;1.08;;;;;;;;;;4387466;32;71712;-63
2023/01/19 16:27:58;;;;;;;2.37;1.33;;;;;;;;;;4387562;32;65869;-63
2023/01/19 16:30:44;;;;;;;3.12;1.33;;;;;;;;;;4387544;32;67676;-63
2023/01/19 16:33:31;;;;;;;2.33;1.42;;;;;;;;;;4387463;32;58986;-64
2023/01/19 16:36:39;;;;;;;1.95;1.27;;;;;;;;;;4386978;32;70516;-63
2023/01/19 16:39:25;;;;;;;;;;;;;;;;;;4387664;32;69105;-63
2023/01/19 16:42:12;;;;;;;2.85;1.58;;;;;;;;;;4387382;32;67978;-62
2023/01/19 16:44:58;;;;;;;1.80;1.23;;;;;;;;;;4363367;32;59837;-62
2023/01/19 16:47:49;;;;;;;2.40;1.52;;;;;;;;;;4387041;32;69578;-63
2023/01/19 16:50:35;;;;;;;1.83;1.37;;;;;;;;;;4384210;32;68965;-63
2023/01/19 16:53:22;;;;;;;3.72;1.52;;;;;;;;;;4373750;32;67471;-62
2023/01/19 16:56:12;;;;;;;3.35;1.27;;;;;;;;;;4386903;32;71555;-63
2023/01/19 16:58:58;;;;;;;2.22;1.40;;;;;;;;;;4365715;32;66040;-62
2023/01/19 17:01:46;;;;;;;2.62;1.30;;;;;;;;;;4386854;32;66701;-63
2023/01/19 17:04:32;;;;;;;3.83;1.55;;;;;;;;;;4399228;32;59325;-64
2023/01/19 17:07:19;;;;;;;;;;;;;;;;;;4387232;32;70509;-64
2023/01/19 17:10:09;;;;;;;1.70;1.15;;;;;;;;;;4387852;32;64839;-64
2023/01/19 17:12:58;;;;;;;4.25;2.20;;;;;;;;;;4353485;32;68095;-62
2023/01/19 17:15:45;;;;;;;2.95;1.48;;;;;;;;;;4374521;32;59660;-62
2023/01/19 17:18:33;;;;;;;2.53;1.40;;;;;;;;;;4374052;32;71178;-63
2023/01/19 17:21:20;;;;;;;2.00;1.42;;;;;;;;;;4386738;32;68205;-62
2023/01/19 17:24:07;;;;;;;3.20;1.85;;;;;;;;;;4386600;32;67532;-63
2023/01/19 17:26:54;;;;;;;2.37;1.60;;;;;;;;;;4362976;32;71987;-63
2023/01/19 17:29:41;;;;;;;1.98;1.45;;;;;;;;;;4388483;32;65969;-64
2023/01/19 17:32:28;;;;;;;2.47;1.30;;;;;;;;;;4373787;32;68614;-63
2023/01/19 17:35:15;;;;;;;3.03;1.45;;;;;;;;;;4386492;32;66829;-62
2023/01/19 17:38:02;;;;;;;2.42;1.42;;;;;;;;;;4375980;32;71943;-62
2023/01/19 17:40:48;;;;;;;2.80;1.70;;;;;;;;;;4375903;32;65033;-62
2023/01/19 17:43:35;;;;;;;3.95;1.80;;;;;;;;;;4383953;32;68023;-64
2023/01/19 17:46:24;;;;;;;2.40;1.25;;;;;;;;;;4386780;32;60754;-63
2023/01/19 17:49:10;;;;;;;2.00;1.40;;;;;;;;;;4398272;32;69575;-61
2023/01/19 17:51:57;;;;;;;2.78;1.40;;;;;;;;;;4373131;32;68986;-61
2023/01/19 17:54:43;;;;;;;2.50;1.75;;;;;;;;;;4375597;32;66717;-63
2023/01/19 17:57:31;;;;;;;3.65;1.50;;;;;;;;;;4373326;32;71986;-62
2023/01/19 18:00:17;;;;;;;1.50;1.33;;;;;;;;;;4362453;32;71621;-62
2023/01/19 18:03:04;;;;;;;2.10;1.25;;;;;;;;;;4375707;32;69242;-65
2023/01/19 18:05:55;;;;;;;2.30;1.40;;;;;;;;;;4384617;32;68089;-63
2023/01/19 18:08:43;;;;;;;2.30;1.48;;;;;;;;;;4372549;32;72201;-63
2023/01/19 18:11:30;;;;;;;4.37;1.42;;;;;;;;;;4362406;32;67017;-63
2023/01/19 18:14:16;;;;;;;1.90;1.42;;;;;;;;;;4386712;32;67488;-63
2023/01/19 18:17:03;;;;;;;3.28;1.80;;;;;;;;;;4362470;32;60631;-63
2023/01/19 18:19:50;;;;;;;2.40;1.37;;;;;;;;;;4373872;32;70928;-63
2023/01/19 18:22:37;;;;;;;2.83;1.62;;;;;;;;;;4383788;32;69700;-63
2023/01/19 18:25:23;;;;;;;2.62;1.58;;;;;;;;;;4385491;32;66377;-62
2023/01/19 18:28:10;;;;;;;3.72;1.80;;;;;;;;;;4375632;32;59360;-63
2023/01/19 18:30:57;;;;;;;2.90;1.42;;;;;;;;;;4398039;32;70650;-62
2023/01/19 18:33:43;;;;;;;2.87;1.55;;;;;;;;;;4398674;32;69623;-62
2023/01/19 18:36:31;;;;;;;2.75;1.52;;;;;;;;;;4362056;32;68156;-62
2023/01/19 18:39:17;;;;;;;3.50;1.75;;;;;;;;;;4372853;32;71317;-64
2023/01/19 18:42:04;;;;;;;2.78;1.80;;;;;;;;;;4386442;32;65716;-62
2023/01/19 18:44:51;;;;;;;1.77;1.30;;;;;;;;;;4372783;32;68262;-62
2023/01/19 18:47:38;;;;;;;3.28;1.42;;;;;;;;;;4375341;32;59984;-62
2023/01/19 18:50:24;;;;;;;1.87;1.30;;;;;;;;;;4372629;32;72846;-62
2023/01/19 18:53:11;;;;;;;1.58;1.23;;;;;;;;;;4397706;32;65889;-62
2023/01/19 18:55:58;;;;;;;3.15;1.65;;;;;;;;;;4385930;32;67825;-62
2023/01/19 18:58:45;;;;;;;2.60;1.48;;;;;;;;;;4374786;32;59716;-63
2023/01/19 19:01:34;;;;;;;2.33;1.55;;;;;;;;;;4385529;32;71754;-63
2023/01/19 19:04:21;;;;;;;1.60;1.35;;;;;;;;;;4377787;32;68502;-63
2023/01/19 19:07:07;;;;;;;3.03;1.58;;;;;;;;;;4400338;32;67924;-63
2023/01/19 19:09:53;;;;;;;;;;;;;;;;;;4364908;32;71480;-63
2023/01/19 19:12:40;;;;;;;2.42;1.52;;;;;;;;;;4385154;32;70649;-62
2023/01/19 19:15:27;;;;;;;;;;;;;;;;;;4364478;32;68922;-62
2023/01/19 19:18:14;;;;;;;1.87;1.30;;;;;;;;;;4367029;32;67895;-63
2023/01/19 19:21:06;;;;;;;2.10;1.05;;;;;;;;;;4387998;32;71425;-61
2023/01/19 19:23:57;;;;;;;1.92;1.30;;;;;;;;;;4388273;32;65674;-62
2023/01/19 19:26:44;;;;;;;3.22;1.62;;;;;;;;;;4385267;32;68508;-62
2023/01/19 19:29:32;;;;;;;1.73;1.25;;;;;;;;;;4377528;32;60057;-62
2023/01/19 19:32:19;;;;;;;2.35;1.52;;;;;;;;;;4375013;32;71331;-62
2023/01/19 19:35:06;;;;;;;3.80;1.27;;;;;;;;;;4377278;32;69407;-62
2023/01/19 19:37:56;;;;;;;;;;;;;;;;;;4400149;32;67784;-64
2023/01/19 19:40:42;;;;;;;3.80;1.37;;;;;;;;;;4400379;32;59743;-63
2023/01/19 19:43:30;;;;;;;;;;;;;;;;;;4364785;32;70977;-64
2023/01/19 19:46:18;;;;;;;3.95;1.25;;;;;;;;;;4385754;32;69148;-63
2023/01/19 19:49:05;;;;;;;2.47;1.40;;;;;;;;;;4388767;32;66795;-62
2023/01/19 19:51:52;;;;;;;2.95;1.30;;;;;;;;;;4364346;32;70211;-62
2023/01/19 19:54:39;;;;;;;1.95;1.35;;;;;;;;;;4374817;32;66736;-62
2023/01/19 19:57:26;;;;;;;1.67;1.12;;;;;;;;;;4377478;32;68146;-63
2023/01/19 20:00:12;;;;;;;1.85;1.50;;;;;;;;;;4388461;32;60260;-63
2023/01/19 20:02:59;;;;;;;3.55;1.37;;;;;;;;;;4399515;32;71983;-63
2023/01/19 20:05:46;;;;;;;6.70;3.83;;;;;;;;;;4387792;32;66060;-64
2023/01/19 20:08:33;;;;;;;14.13;7.53;;;;;;;;;;4374538;32;67293;-63
2023/01/19 20:11:25;;;;;;;9.88;5.60;;;;;;;;;;4376932;32;60306;-62
2023/01/19 20:14:14;;;;;;;9.57;5.18;;;;;;;;;;4387096;32;70746;-62
2023/01/19 20:17:01;;;;;;;9.95;5.28;;;;;;;;;;4387604;32;68360;-63
2023/01/19 20:19:48;;;;;;;8.85;5.50;;;;;;;;;;4399531;32;67654;-63
2023/01/19 20:22:34;;;;;;;11.43;5.97;;;;;;;;;;4373776;32;71521;-63
2023/01/19 20:25:21;;;;;;;10.52;4.82;;;;;;;;;;4387530;32;66135;-63
2023/01/19 20:28:07;;;;;;;13.95;5.97;;;;;;;;;;4387190;32;69293;-62
2023/01/19 20:30:54;;;;;;;17.62;8.55;;;;;;;;;;4384546;32;68133;-63
2023/01/19 20:33:41;;;;;;;14.65;6.85;;;;;;;;;;4398960;32;71589;-63
2023/01/19 20:36:28;;;;;;;15.13;7.72;;;;;;;;;;4376523;32;64934;-63
2023/01/19 20:39:18;;;;;;;15.45;8.02;;;;;;;;;;4399150;32;67103;-62
2023/01/19 20:42:09;;;;;;;12.55;5.43;;;;;;;;;;4387336;32;60324;-63
2023/01/19 20:44:56;;;;;;;9.07;5.68;;;;;;;;;;4387679;32;70326;-63
2023/01/19 20:47:42;;;;;;;9.15;3.92;;;;;;;;;;4384148;32;70011;-63
2023/01/19 20:50:29;;;;;;;12.68;4.78;;;;;;;;;;4376555;32;67825;-62
2023/01/19 20:53:16;;;;;;;4.80;2.50;;;;;;;;;;4363402;32;61069;-63
2023/01/19 20:56:04;;;;;;;3.03;2.20;;;;;;;;;;4398855;32;71152;-64
2023/01/19 20:58:51;;;;;;;4.65;2.10;;;;;;;;;;4386943;32;69142;-63
2023/01/19 21:01:38;;;;;;;;;;;;;;;;;;4399268;32;66335;-64
2023/01/19 21:04:25;;;;;;;2.65;1.80;;;;;;;;;;4376284;32;70974;-63
2023/01/19 21:07:12;;;;;;;3.03;2.10;;;;;;;;;;4386867;32;64979;-62
2023/01/19 21:09:58;;;;;;;4.55;1.95;;;;;;;;;;4373376;32;68703;-64
2023/01/19 21:12:45;;;;;;;3.83;2.03;;;;;;;;;;4375934;32;59868;-63
2023/01/19 21:15:31;;;;;;;2.78;1.50;;;;;;;;;;4374988;32;71333;-62
2023/01/19 21:18:18;;;;;;;5.65;3.00;;;;;;;;;;4384287;32;66741;-62
2023/01/19 21:21:05;;;;;;;3.08;2.00;;;;;;;;;;4386784;32;68154;-63
2023/01/19 21:23:52;;;;;;;;;;;;;;;;;;4399032;32;59323;-62
2023/01/19 21:26:40;;;;;;;2.90;1.87;;;;;;;;;;4398811;32;69297;-62
2023/01/19 21:29:27;;;;;;;2.03;1.40;;;;;;;;;;4373246;32;70126;-62
2023/01/19 21:32:13;;;;;;;;;;;;;;;;;;4386944;32;67514;-62
2023/01/19 21:35:12;;;;;;;3.92;1.77;;;;;;;;;;3847414;37;43887;-61
2023/01/19 21:37:59;;;;;;;3.37;1.90;;;;;;;;;;4388721;32;59798;-62
2023/01/19 21:40:46;;;;;;;2.40;1.50;;;;;;;;;;4409672;32;69546;-62
2023/01/19 21:43:35;;;;;;;3.45;2.00;;;;;;;;;;4388144;32;69324;-62
2023/01/19 21:46:30;;;;;;;5.35;1.95;;;;;;;;;;4398215;32;68306;-64
2023/01/19 21:49:19;;;;;;;4.28;1.65;;;;;;;;;;4399659;32;71694;-63
2023/01/19 21:52:05;;;;;;;4.57;2.15;;;;;;;;;;4409608;32;64968;-62
2023/01/19 21:54:52;;;;;;;;;;;;;;;;;;4398373;32;67331;-62
2023/01/19 21:57:38;;;;;;;3.33;2.00;;;;;;;;;;4410016;32;59770;-63
2023/01/19 22:00:25;;;;;;;2.47;1.40;;;;;;;;;;4398675;32;71621;-61
2023/01/19 22:03:12;;;;;;;3.65;1.87;;;;;;;;;;4409586;32;65736;-62
2023/01/19 22:06:07;;;;;;;2.50;1.50;;;;;;;;;;4409443;32;66765;-64
2023/01/19 22:08:54;;;;;;;4.22;1.80;;;;;;;;;;4388185;32;59065;-62
2023/01/19 22:11:40;;;;;;;2.55;1.73;;;;;;;;;;4387794;32;69482;-61
2023/01/19 22:14:27;;;;;;;2.92;1.62;;;;;;;;;;4408743;32;68845;-63
2023/01/19 22:17:13;;;;;;;2.17;1.45;;;;;;;;;;4398217;32;65945;-62
2023/01/19 22:20:00;;;;;;;2.65;1.83;;;;;;;;;;4409162;32;70784;-63
2023/01/19 22:22:47;;;;;;;3.90;1.70;;;;;;;;;;4409535;32;64978;-63
2023/01/19 22:25:34;;;;;;;3.05;1.87;;;;;;;;;;4409334;32;68207;-62
2023/01/19 22:28:20;;;;;;;3.78;1.73;;;;;;;;;;4408724;32;68294;-63
2023/01/19 22:31:10;;;;;;;3.55;1.75;;;;;;;;;;4397535;32;72300;-62
2023/01/19 22:33:56;;;;;;;4.20;2.20;;;;;;;;;;4397568;32;67218;-63
2023/01/19 22:36:43;;;;;;;;;;;;;;;;;;4409542;32;67550;-63
2023/01/19 22:39:29;;;;;;;2.10;1.65;;;;;;;;;;4409601;32;59829;-61
2023/01/19 22:42:16;;;;;;;3.95;1.90;;;;;;;;;;4398442;32;70148;-63
2023/01/19 22:45:03;;;;;;;2.87;1.52;;;;;;;;;;4394228;32;68551;-63
2023/01/19 22:47:50;;;;;;;2.87;1.70;;;;;;;;;;4399987;32;68156;-62
2023/01/19 22:50:36;;;;;;;2.92;1.92;;;;;;;;;;4377274;32;59712;-63
2023/01/19 22:53:23;;;;;;;3.17;1.83;;;;;;;;;;4399805;32;70132;-62
2023/01/19 22:56:19;;;;;;;3.53;1.65;;;;;;;;;;4387903;32;68255;-62
2023/01/19 22:59:06;;;;;;;2.70;1.80;;;;;;;;;;4387947;32;67651;-63
2023/01/19 23:01:52;;;;;;;3.95;1.80;;;;;;;;;;4398484;32;71189;-63
2023/01/19 23:04:39;;;;;;;2.15;1.70;;;;;;;;;;4398157;32;66797;-62
2023/01/19 23:07:25;;;;;;;3.90;1.83;;;;;;;;;;4398660;32;67318;-62
2023/01/19 23:10:12;;;;;;;4.85;2.00;;;;;;;;;;4398709;32;60026;-62
2023/01/19 23:12:59;;;;;;;4.85;1.87;;;;;;;;;;4387079;32;71253;-64
2023/01/19 23:15:45;;;;;;;3.05;2.10;;;;;;;;;;4397955;32;67475;-62
2023/01/19 23:18:32;;;;;;;3.28;1.80;;;;;;;;;;4398388;32;66668;-63
2023/01/19 23:21:20;;;;;;;3.35;1.80;;;;;;;;;;4398111;32;60943;-62
2023/01/19 23:24:07;;;;;;;2.22;1.67;;;;;;;;;;4387126;32;71212;-64
2023/01/19 23:26:54;;;;;;;4.47;1.83;;;;;;;;;;4387528;32;69606;-62
2023/01/19 23:29:40;;;;;;;2.67;1.62;;;;;;;;;;4398448;32;66581;-62
2023/01/19 23:32:27;;;;;;;2.72;1.83;;;;;;;;;;4398154;32;71629;-63
2023/01/19 23:35:14;;;;;;;2.42;1.62;;;;;;;;;;4387368;32;65861;-62
2023/01/19 23:38:01;;;;;;;3.67;1.92;;;;;;;;;;4377084;32;66650;-64
2023/01/19 23:40:47;;;;;;;2.37;1.73;;;;;;;;;;4398124;32;66653;-62
2023/01/19 23:43:34;;;;;;;2.47;1.52;;;;;;;;;;4397247;32;72446;-62
2023/01/19 23:46:21;;;;;;;3.22;1.80;;;;;;;;;;4399424;32;64932;-63
2023/01/19 23:49:08;;;;;;;1.55;1.20;;;;;;;;;;4398053;32;67377;-62
2023/01/19 23:51:55;;;;;;;3.22;2.05;;;;;;;;;;4376893;32;59029;-62
2023/01/19 23:54:43;;;;;;;2.90;1.77;;;;;;;;;;4387210;32;69650;-62
2023/01/19 23:57:30;;;;;;;2.17;1.50;;;;;;;;;;4386559;32;68325;-63
